createdAt,value
2023-02-06T00:01:44.371Z,34.03
2023-02-06T00:04:13.116Z,23.13
2023-02-06T00:06:41.568Z,28.53
2023-02-06T00:09:11.716Z,37.00
2023-02-06T00:11:39.485Z,31.73
2023-02-06T00:14:07.443Z,25.23
2023-02-06T00:16:36.891Z,27.80
2023-02-06T00:19:04.952Z,33.73
2023-02-06T00:21:33.248Z,27.53
2023-02-06T00:24:02.699Z,34.30
2023-02-06T00:26:31.950Z,23.97
2023-02-06T00:28:59.904Z,33.40
2023-02-06T00:31:27.802Z,21.97
2023-02-06T00:33:55.710Z,34.73
2023-02-06T00:36:23.670Z,25.90
2023-02-06T00:38:53.060Z,30.70
2023-02-06T00:41:21.539Z,29.53
2023-02-06T00:43:51.571Z,35.00
2023-02-06T00:46:19.636Z,26.90
2023-02-06T00:48:47.578Z,42.37
2023-02-06T00:51:15.498Z,43.77
2023-02-06T00:53:43.393Z,35.67
2023-02-06T00:56:11.143Z,20.17
2023-02-06T00:58:38.928Z,34.80
2023-02-06T01:01:08.607Z,30.03
2023-02-06T01:03:36.511Z,31.07
2023-02-06T01:06:04.712Z,33.73
2023-02-06T01:08:32.522Z,43.10
2023-02-06T01:11:00.815Z,29.97
2023-02-06T01:13:28.944Z,44.73
2023-02-06T01:15:56.825Z,30.67
2023-02-06T01:18:26.002Z,35.93
2023-02-06T01:20:53.842Z,30.37
2023-02-06T01:23:21.665Z,24.70
2023-02-06T01:25:49.487Z,26.57
2023-02-06T01:28:17.559Z,31.23
2023-02-06T01:30:45.493Z,31.73
2023-02-06T01:33:13.256Z,31.00
2023-02-06T01:35:42.318Z,27.33
2023-02-06T01:38:10.198Z,33.87
2023-02-06T01:40:38.712Z,35.10
2023-02-06T01:43:18.334Z,28.50
2023-02-06T01:45:47.790Z,29.53
2023-02-06T01:48:20.273Z,23.20
2023-02-06T01:50:54.707Z,30.97
2023-02-06T01:53:24.604Z,30.77
2023-02-06T01:55:59.363Z,16.67
2023-02-06T01:58:34.402Z,29.93
2023-02-06T02:01:04.191Z,42.45
2023-02-06T02:03:36.855Z,24.60
2023-02-06T02:06:11.830Z,22.43
2023-02-06T02:08:43.082Z,27.95
2023-02-06T02:11:18.468Z,27.77
2023-02-06T02:13:47.181Z,35.23
2023-02-06T02:16:26.650Z,39.33
2023-02-06T02:19:31.765Z,38.67
2023-02-06T02:22:39.778Z,36.90
2023-02-06T02:26:16.472Z,36.13
2023-02-06T02:29:49.088Z,34.87
2023-02-06T02:32:52.734Z,39.87
2023-02-06T02:35:42.244Z,34.10
2023-02-06T02:38:24.836Z,36.10
2023-02-06T02:41:05.105Z,29.07
2023-02-06T02:43:43.566Z,38.20
2023-02-06T02:46:22.578Z,28.47
2023-02-06T02:48:55.144Z,38.60
2023-02-06T02:51:25.389Z,47.13
2023-02-06T02:53:56.714Z,38.83
2023-02-06T02:56:26.688Z,36.37
2023-02-06T02:59:02.659Z,32.07
2023-02-06T03:01:38.335Z,43.73
2023-02-06T03:04:15.296Z,43.25
2023-02-06T03:07:06.432Z,35.53
2023-02-06T03:09:58.573Z,30.37
2023-02-06T03:12:39.035Z,32.77
2023-02-06T03:15:29.410Z,26.73
2023-02-06T03:18:07.350Z,31.13
2023-02-06T03:20:42.042Z,38.27
2023-02-06T03:23:17.082Z,37.97
2023-02-06T03:25:50.837Z,34.35
2023-02-06T03:28:26.130Z,34.47
2023-02-06T03:31:00.183Z,40.58
2023-02-06T03:33:36.201Z,36.63
2023-02-06T03:36:05.345Z,43.63
2023-02-06T03:38:34.612Z,30.33
2023-02-06T03:41:04.607Z,46.67
2023-02-06T03:43:33.025Z,54.03
2023-02-06T03:46:06.113Z,51.60
2023-02-06T03:48:41.090Z,48.67
2023-02-06T03:51:16.411Z,47.70
2023-02-06T03:53:48.826Z,55.00
2023-02-06T03:56:32.298Z,42.83
2023-02-06T03:59:00.292Z,54.87
2023-02-06T04:01:28.356Z,55.63
2023-02-06T04:03:57.438Z,61.23
2023-02-06T04:06:25.507Z,68.17
2023-02-06T04:08:54.958Z,94.10
2023-02-06T04:11:22.795Z,111.23
2023-02-06T04:13:50.657Z,142.20
2023-02-06T04:16:19.200Z,135.83
2023-02-06T04:18:47.259Z,171.10
2023-02-06T04:21:15.187Z,163.83
2023-02-06T04:23:42.989Z,148.67
2023-02-06T04:26:12.279Z,122.57
2023-02-06T04:28:40.010Z,125.63
2023-02-06T04:31:07.980Z,108.67
2023-02-06T04:33:35.887Z,88.43
2023-02-06T04:36:04.185Z,84.20
2023-02-06T04:38:32.308Z,95.40
2023-02-06T04:41:03.513Z,90.97
2023-02-06T04:43:33.617Z,133.07
2023-02-06T04:46:01.668Z,112.00
2023-02-06T04:48:29.519Z,147.03
2023-02-06T04:50:57.282Z,137.47
2023-02-06T04:53:25.039Z,144.87
2023-02-06T04:55:52.764Z,117.07
2023-02-06T04:58:20.620Z,162.37
2023-02-06T05:00:50.422Z,162.37
2023-02-06T05:03:18.279Z,197.27
2023-02-06T05:05:46.153Z,204.57
2023-02-06T05:08:13.992Z,176.03
2023-02-06T05:10:41.807Z,128.53
2023-02-06T05:13:09.713Z,123.00
2023-02-06T05:15:38.880Z,101.17
2023-02-06T05:18:08.397Z,105.53
2023-02-06T05:20:36.345Z,114.23
2023-02-06T05:23:04.558Z,136.40
2023-02-06T05:25:32.579Z,136.53
2023-02-06T05:28:00.581Z,123.23
2023-02-06T05:30:28.909Z,171.37
2023-02-06T05:32:58.028Z,110.83
2023-02-06T05:35:27.782Z,127.07
2023-02-06T05:37:57.482Z,104.43
2023-02-06T05:40:25.970Z,187.97
2023-02-06T05:42:54.369Z,129.23
2023-02-06T05:45:22.857Z,142.17
2023-02-06T05:47:51.030Z,132.43
2023-02-06T05:50:19.526Z,121.97
2023-02-06T05:52:54.222Z,121.40
2023-02-06T05:55:22.426Z,108.70
2023-02-06T05:57:50.303Z,128.90
2023-02-06T06:00:18.927Z,131.67
2023-02-06T06:02:46.861Z,144.83
2023-02-06T06:05:14.732Z,154.63
2023-02-06T06:07:42.544Z,215.27
2023-02-06T06:10:12.989Z,192.27
2023-02-06T06:12:40.850Z,154.10
2023-02-06T06:17:59.475Z,170.03
2023-02-06T06:20:27.265Z,147.00
2023-02-06T06:22:55.309Z,121.50
2023-02-06T06:28:10.318Z,134.13
2023-02-06T06:30:38.324Z,121.23
2023-02-06T06:33:06.442Z,137.40
2023-02-06T06:35:35.234Z,156.93
2023-02-06T06:38:03.206Z,136.50
2023-02-06T06:40:32.386Z,155.50
2023-02-06T06:43:00.139Z,175.53
2023-02-06T06:45:28.086Z,177.67
2023-02-06T06:47:55.988Z,142.43
2023-02-06T06:50:23.739Z,165.77
2023-02-06T06:52:51.870Z,137.10
2023-02-06T06:55:20.296Z,187.93
2023-02-06T06:57:49.512Z,163.57
2023-02-06T07:00:18.006Z,125.70
2023-02-06T07:02:45.897Z,118.73
2023-02-06T07:05:14.101Z,125.97
2023-02-06T07:07:42.076Z,134.10
2023-02-06T07:10:13.232Z,141.53
2023-02-06T07:12:41.426Z,107.97
2023-02-06T07:15:11.800Z,136.83
2023-02-06T07:17:40.047Z,112.33
2023-02-06T07:20:12.415Z,131.37
2023-02-06T07:22:40.398Z,140.33
2023-02-06T07:25:12.141Z,107.40
2023-02-06T07:27:40.054Z,79.97
2023-02-06T07:30:12.294Z,70.03
2023-02-06T07:32:40.748Z,70.30
2023-02-06T07:35:12.024Z,50.83
2023-02-06T07:37:39.977Z,55.23
2023-02-06T07:40:11.624Z,60.13
2023-02-06T07:42:40.213Z,53.83
2023-02-06T07:45:26.837Z,48.43
2023-02-06T07:47:54.723Z,45.73
2023-02-06T07:50:22.541Z,52.70
2023-02-06T07:52:50.812Z,70.67
2023-02-06T07:55:18.798Z,59.83
2023-02-06T07:57:46.643Z,65.90
2023-02-06T08:00:16.175Z,63.90
2023-02-06T08:02:45.406Z,65.47
2023-02-06T08:05:13.333Z,52.67
2023-02-06T08:07:41.296Z,54.83
2023-02-06T08:10:12.903Z,41.47
2023-02-06T08:12:41.087Z,42.37
2023-02-06T08:15:12.976Z,46.20
2023-02-06T08:17:42.743Z,52.60
2023-02-06T08:20:12.849Z,77.73
2023-02-06T08:22:41.052Z,57.77
2023-02-06T08:25:09.468Z,49.30
2023-02-06T08:27:38.417Z,45.33
2023-02-06T08:30:08.129Z,46.57
2023-02-06T08:32:36.237Z,67.83
2023-02-06T08:35:04.695Z,55.67
2023-02-06T08:37:34.010Z,53.33
2023-02-06T08:40:01.970Z,40.03
2023-02-06T08:42:29.864Z,43.37
2023-02-06T08:44:57.867Z,41.43
2023-02-06T08:47:25.928Z,40.43
2023-02-06T08:49:54.644Z,41.33
2023-02-06T08:52:23.329Z,44.97
2023-02-06T08:54:52.895Z,46.73
2023-02-06T08:57:20.687Z,42.63
2023-02-06T08:59:49.583Z,41.23
2023-02-06T09:02:17.523Z,46.53
2023-02-06T09:04:45.477Z,45.17
2023-02-06T09:07:14.690Z,44.97
2023-02-06T09:09:43.590Z,50.43
2023-02-06T09:12:12.791Z,47.63
2023-02-06T09:14:40.602Z,48.23
2023-02-06T09:17:08.992Z,44.60
2023-02-06T09:19:37.069Z,43.40
2023-02-06T09:22:06.945Z,42.53
2023-02-06T09:24:35.220Z,41.90
2023-02-06T09:27:03.065Z,43.83
2023-02-06T09:29:32.588Z,41.83
2023-02-06T09:32:01.364Z,48.87
2023-02-06T09:34:29.889Z,44.17
2023-02-06T09:36:58.251Z,46.07
2023-02-06T09:39:26.472Z,48.10
2023-02-06T09:42:00.136Z,45.27
2023-02-06T09:44:35.609Z,39.57
2023-02-06T09:47:18.983Z,37.92
2023-02-06T09:49:53.100Z,38.13
2023-02-06T09:52:50.160Z,34.87
2023-02-06T09:55:29.091Z,41.40
2023-02-06T09:58:09.896Z,34.90
2023-02-06T10:00:47.488Z,37.07
2023-02-06T10:03:56.075Z,33.03
2023-02-06T10:06:39.149Z,29.80
2023-02-06T10:09:18.120Z,28.47
2023-02-06T10:11:54.000Z,29.83
2023-02-06T10:14:39.402Z,30.70
2023-02-06T10:17:20.827Z,36.20
2023-02-06T10:19:58.634Z,31.70
2023-02-06T10:22:40.774Z,36.13
2023-02-06T10:25:27.282Z,30.33
2023-02-06T10:28:01.627Z,33.77
2023-02-06T10:31:00.322Z,28.83
2023-02-06T10:33:45.370Z,31.90
2023-02-06T10:36:40.090Z,29.07
2023-02-06T10:39:45.516Z,40.80
2023-02-06T10:42:23.683Z,44.97
2023-02-06T10:45:18.401Z,32.87
2023-02-06T10:47:55.893Z,28.70
2023-02-06T10:50:32.707Z,27.53
2023-02-06T10:53:13.913Z,24.67
2023-02-06T10:55:52.195Z,24.97
2023-02-06T10:58:27.854Z,29.47
2023-02-06T11:00:58.699Z,32.15
2023-02-06T11:03:33.112Z,27.77
2023-02-06T11:06:03.270Z,36.70
2023-02-06T11:08:40.031Z,28.70
2023-02-06T11:11:21.170Z,33.63
2023-02-06T11:13:55.092Z,32.87
2023-02-06T11:16:27.024Z,27.47
2023-02-06T11:19:01.980Z,31.67
2023-02-06T11:21:55.652Z,29.67
2023-02-06T11:24:28.164Z,32.17
2023-02-06T11:27:01.340Z,32.50
2023-02-06T11:29:37.116Z,29.70
2023-02-06T11:34:51.402Z,29.93
2023-02-06T11:37:34.844Z,33.33
2023-02-06T11:40:24.747Z,34.27
2023-02-06T11:43:15.045Z,33.93
2023-02-06T11:45:47.530Z,33.53
2023-02-06T11:48:35.271Z,29.40
2023-02-06T11:51:06.004Z,29.03
2023-02-06T11:53:37.421Z,25.50
2023-02-06T11:56:17.143Z,24.97
2023-02-06T11:58:46.378Z,24.97
2023-02-06T12:01:21.540Z,29.73
2023-02-06T12:03:57.783Z,29.23
2023-02-06T12:06:32.575Z,23.90
2023-02-06T12:09:09.008Z,29.27
2023-02-06T12:11:55.127Z,24.37
2023-02-06T12:14:34.744Z,28.93
2023-02-06T12:17:10.051Z,24.50
2023-02-06T12:19:49.802Z,24.83
2023-02-06T12:22:24.982Z,28.17
2023-02-06T12:25:00.074Z,23.20
2023-02-06T12:27:38.840Z,22.67
2023-02-06T12:30:29.306Z,25.30
2023-02-06T12:33:09.855Z,18.93
2023-02-06T12:35:46.256Z,23.03
2023-02-06T12:38:26.343Z,8.30
2023-02-06T12:41:19.437Z,23.27
2023-02-06T12:43:55.105Z,18.03
2023-02-06T12:49:07.739Z,24.87
2023-02-06T12:51:43.504Z,24.60
2023-02-06T12:56:54.250Z,17.03
2023-02-06T12:59:58.003Z,24.77
2023-02-06T13:02:57.922Z,24.97
2023-02-06T13:05:32.438Z,26.57
2023-02-06T13:08:08.635Z,23.30
2023-02-06T13:10:38.269Z,25.03
2023-02-06T13:13:28.176Z,24.93
2023-02-06T13:16:00.398Z,26.20
2023-02-06T13:18:52.742Z,27.60
2023-02-06T13:21:28.639Z,21.47
2023-02-06T13:24:18.736Z,26.23
2023-02-06T13:27:22.557Z,29.00
2023-02-06T13:30:39.839Z,30.03
2023-02-06T13:33:19.439Z,24.30
2023-02-06T13:36:00.315Z,27.37
2023-02-06T13:38:38.738Z,32.13
2023-02-06T13:41:31.224Z,26.30
2023-02-06T13:44:06.624Z,21.57
2023-02-06T13:47:27.751Z,21.38
2023-02-06T13:50:38.842Z,25.50
2023-02-06T13:54:02.491Z,22.90
2023-02-06T13:56:51.767Z,30.57
2023-02-06T13:59:28.318Z,24.17
2023-02-06T14:02:12.609Z,24.23
2023-02-06T14:04:45.272Z,24.03
2023-02-06T14:07:43.206Z,26.33
2023-02-06T14:10:55.281Z,29.20
2023-02-06T14:13:48.238Z,29.93
2023-02-06T14:16:42.538Z,26.73
2023-02-06T14:19:28.233Z,25.67
2023-02-06T14:22:12.696Z,28.55
2023-02-06T14:25:07.253Z,28.57
2023-02-06T14:27:56.965Z,22.15
2023-02-06T14:30:40.340Z,20.80
2023-02-06T14:33:49.500Z,23.47
2023-02-06T14:36:42.052Z,23.53
2023-02-06T14:39:52.463Z,28.17
2023-02-06T14:42:26.664Z,23.70
2023-02-06T14:45:00.983Z,24.70
2023-02-06T14:47:42.344Z,25.67
2023-02-06T14:50:20.835Z,27.47
2023-02-06T14:52:56.297Z,33.40
2023-02-06T14:55:35.653Z,34.47
2023-02-06T14:58:17.510Z,23.87
2023-02-06T15:00:45.943Z,25.00
2023-02-06T15:03:17.659Z,27.23
2023-02-06T15:05:46.925Z,22.90
2023-02-06T15:08:20.718Z,23.27
2023-02-06T15:11:04.102Z,25.33
2023-02-06T15:13:35.354Z,26.93
2023-02-06T15:16:06.985Z,22.67
2023-02-06T15:18:36.771Z,23.67
2023-02-06T15:21:08.658Z,28.67
2023-02-06T15:24:00.770Z,28.20
2023-02-06T15:26:41.253Z,27.43
2023-02-06T15:29:23.110Z,25.23
2023-02-06T15:31:54.771Z,25.07
2023-02-06T15:34:25.237Z,24.93
2023-02-06T15:36:53.861Z,23.60
2023-02-06T15:39:25.043Z,22.53
2023-02-06T15:41:54.494Z,29.00
2023-02-06T15:44:35.433Z,25.87
2023-02-06T15:47:11.941Z,20.33
2023-02-06T15:49:43.455Z,17.90
2023-02-06T15:52:15.176Z,22.47
2023-02-06T15:55:01.732Z,25.83
2023-02-06T15:57:35.352Z,22.17
2023-02-06T16:00:09.710Z,24.27
2023-02-06T16:02:41.646Z,19.67
2023-02-06T16:05:29.963Z,18.93
2023-02-06T16:08:03.111Z,24.70
2023-02-06T16:10:38.331Z,31.77
2023-02-06T16:13:12.244Z,22.45
2023-02-06T16:16:01.736Z,25.03
2023-02-06T16:18:34.153Z,27.17
2023-02-06T16:21:28.977Z,29.27
2023-02-06T16:24:17.738Z,26.77
2023-02-06T16:26:52.446Z,24.97
2023-02-06T16:29:26.933Z,26.10
2023-02-06T16:32:01.576Z,26.87
2023-02-06T16:34:37.233Z,31.17
2023-02-06T16:37:12.110Z,31.33
2023-02-06T16:39:43.187Z,27.77
2023-02-06T16:42:20.935Z,29.63
2023-02-06T16:44:53.378Z,33.70
2023-02-06T16:47:22.046Z,33.53
2023-02-06T16:49:50.983Z,36.97
2023-02-06T16:52:25.858Z,31.83
2023-02-06T16:54:56.509Z,28.27
2023-02-06T16:57:32.028Z,27.03
2023-02-06T17:00:00.584Z,27.25
2023-02-06T17:02:29.146Z,30.97
2023-02-06T17:04:57.305Z,26.80
2023-02-06T17:07:30.878Z,29.83
2023-02-06T17:09:59.572Z,27.93
2023-02-06T17:12:29.352Z,29.20
2023-02-06T17:14:58.468Z,36.70
2023-02-06T17:17:26.998Z,44.43
2023-02-06T17:19:55.080Z,55.50
2023-02-06T17:22:23.283Z,49.90
2023-02-06T17:24:52.992Z,44.47
2023-02-06T17:27:23.226Z,61.33
2023-02-06T17:29:53.752Z,74.47
2023-02-06T17:32:22.881Z,68.67
2023-02-06T17:34:54.213Z,57.50
2023-02-06T17:37:23.011Z,59.40
2023-02-06T17:39:52.255Z,61.20
2023-02-06T17:42:23.249Z,75.83
2023-02-06T17:44:52.750Z,56.57
2023-02-06T17:47:22.166Z,62.43
2023-02-06T17:49:50.795Z,67.00
2023-02-06T17:52:18.902Z,66.20
2023-02-06T17:54:46.981Z,73.17
2023-02-06T17:57:15.133Z,63.67
2023-02-06T17:59:43.035Z,68.50
2023-02-06T18:02:14.724Z,64.23
2023-02-06T18:04:50.478Z,58.97
2023-02-06T18:07:19.495Z,63.50
2023-02-06T18:09:48.004Z,61.00
2023-02-06T18:12:16.590Z,71.67
2023-02-06T18:14:44.972Z,79.50
2023-02-06T18:17:18.087Z,79.77
2023-02-06T18:19:48.253Z,75.73
2023-02-06T18:22:18.813Z,69.10
2023-02-06T18:24:48.764Z,78.00
2023-02-06T18:27:18.626Z,63.13
2023-02-06T18:29:50.061Z,70.77
2023-02-06T18:32:20.121Z,61.47
2023-02-06T18:34:48.904Z,66.10
2023-02-06T18:37:17.149Z,51.30
2023-02-06T18:39:45.452Z,45.87
2023-02-06T18:42:32.357Z,45.47
2023-02-06T18:45:04.129Z,33.47
2023-02-06T18:47:33.936Z,39.33
2023-02-06T18:50:02.352Z,41.83
2023-02-06T18:52:30.576Z,39.40
2023-02-06T18:54:59.079Z,59.17
2023-02-06T18:57:29.808Z,63.53
2023-02-06T18:59:58.878Z,53.73
2023-02-06T19:02:27.278Z,45.23
2023-02-06T19:04:59.636Z,42.03
2023-02-06T19:07:28.780Z,44.63
2023-02-06T19:09:58.695Z,56.70
2023-02-06T19:12:28.736Z,62.20
2023-02-06T19:14:58.057Z,56.20
2023-02-06T19:17:28.410Z,52.73
2023-02-06T19:19:58.212Z,53.73
2023-02-06T19:22:26.433Z,53.93
2023-02-06T19:24:54.847Z,47.37
2023-02-06T19:27:23.367Z,54.70
2023-02-06T19:29:51.677Z,48.50
2023-02-06T19:32:19.918Z,46.50
2023-02-06T19:34:48.341Z,53.27
2023-02-06T19:37:18.284Z,51.07
2023-02-06T19:39:46.633Z,64.03
2023-02-06T19:42:16.871Z,51.40
2023-02-06T19:44:45.691Z,50.70
2023-02-06T19:47:13.815Z,48.37
2023-02-06T19:49:43.679Z,59.17
2023-02-06T19:52:14.505Z,64.97
2023-02-06T19:54:44.485Z,63.13
2023-02-06T19:57:12.645Z,58.67
2023-02-06T19:59:41.215Z,72.70
2023-02-06T20:02:14.266Z,68.50
2023-02-06T20:04:43.061Z,67.33
2023-02-06T20:07:11.151Z,71.10
2023-02-06T20:09:42.020Z,86.67
2023-02-06T20:12:12.633Z,78.00
2023-02-06T20:14:40.810Z,78.70
2023-02-06T20:17:08.811Z,80.17
2023-02-06T20:19:36.875Z,75.50
2023-02-06T20:22:04.979Z,62.97
2023-02-06T20:24:33.179Z,67.23
2023-02-06T20:27:07.318Z,70.40
2023-02-06T20:29:40.355Z,72.30
2023-02-06T20:32:08.789Z,92.60
2023-02-06T20:34:36.847Z,111.77
2023-02-06T20:37:04.953Z,113.93
2023-02-06T20:39:33.433Z,114.93
2023-02-06T20:42:01.949Z,139.70
2023-02-06T20:44:30.982Z,113.53
2023-02-06T20:47:01.247Z,94.97
2023-02-06T20:49:31.115Z,120.00
2023-02-06T20:51:59.789Z,137.73
2023-02-06T20:54:28.237Z,64.60
2023-02-06T20:56:56.547Z,91.37
2023-02-06T20:59:24.669Z,92.73
2023-02-06T21:01:52.806Z,58.10
2023-02-06T21:04:22.405Z,72.87
2023-02-06T21:06:50.747Z,67.27
2023-02-06T21:09:19.225Z,68.90
2023-02-06T21:11:50.145Z,70.33
2023-02-06T21:14:19.532Z,63.70
2023-02-06T21:16:48.863Z,64.73
2023-02-06T21:19:21.250Z,56.53
2023-02-06T21:21:51.025Z,64.60
2023-02-06T21:24:19.330Z,57.97
2023-02-06T21:26:47.481Z,56.77
2023-02-06T21:29:16.657Z,46.97
2023-02-06T21:31:46.216Z,51.67
2023-02-06T21:34:17.833Z,54.27
2023-02-06T21:36:46.526Z,48.40
2023-02-06T21:39:19.338Z,53.80
2023-02-06T21:41:51.891Z,42.57
2023-02-06T21:44:20.694Z,46.60
2023-02-06T21:46:48.726Z,40.23
2023-02-06T21:49:17.578Z,47.50
2023-02-06T21:51:45.830Z,35.20
2023-02-06T21:54:14.040Z,49.73
2023-02-06T21:56:44.050Z,48.30
2023-02-06T21:59:12.801Z,54.43
2023-02-06T22:01:41.194Z,45.87
2023-02-06T22:04:11.808Z,41.70
2023-02-06T22:06:39.949Z,40.43
2023-02-06T22:09:15.151Z,44.23
2023-02-06T22:11:45.389Z,41.72
2023-02-06T22:14:17.010Z,38.50
2023-02-06T22:16:48.005Z,36.33
2023-02-06T22:19:17.046Z,38.77
2023-02-06T22:21:45.853Z,43.10
2023-02-06T22:24:14.656Z,39.30
2023-02-06T22:26:44.802Z,39.33
2023-02-06T22:29:16.177Z,37.00
2023-02-06T22:31:45.666Z,47.53
2023-02-06T22:34:16.486Z,48.43
2023-02-06T22:36:44.911Z,42.67
2023-02-06T22:39:15.092Z,36.07
2023-02-06T22:41:45.995Z,42.50
2023-02-06T22:44:16.514Z,38.90
2023-02-06T22:46:47.765Z,38.63
2023-02-06T22:49:17.474Z,43.40
2023-02-06T22:51:45.949Z,50.73
2023-02-06T22:54:15.067Z,47.77
2023-02-06T22:56:45.026Z,52.23
2023-02-06T22:59:19.406Z,51.60
2023-02-06T23:01:51.275Z,40.40
2023-02-06T23:04:22.227Z,42.23
2023-02-06T23:06:51.476Z,39.27
2023-02-06T23:09:22.435Z,48.73
2023-02-06T23:11:52.866Z,42.90
2023-02-06T23:14:21.338Z,48.67
2023-02-06T23:16:49.274Z,44.17
2023-02-06T23:19:19.109Z,46.80
2023-02-06T23:21:49.666Z,39.33
2023-02-06T23:24:18.326Z,49.53
2023-02-06T23:26:49.158Z,39.57
2023-02-06T23:29:20.038Z,42.83
2023-02-06T23:31:49.743Z,38.63
2023-02-06T23:34:20.267Z,40.07
2023-02-06T23:36:48.212Z,48.27
2023-02-06T23:39:16.147Z,34.03
2023-02-06T23:41:43.970Z,35.93
2023-02-06T23:44:12.251Z,34.83
2023-02-06T23:46:41.813Z,33.90
2023-02-06T23:49:10.287Z,34.53
2023-02-06T23:51:38.478Z,34.90
2023-02-06T23:54:08.250Z,31.90
2023-02-06T23:56:36.912Z,28.30
2023-02-06T23:59:05.841Z,24.80
